Terminal Aerodrome Forecast
Issued by NWS Bismarck, ND

Home | Current Version | Previous Version | Text Only | Print | Product List | Glossary On
Versions: 1 2 3 4 5 6 7 8 9 10 11 12 13 14 15 16
000
FTUS43 KBIS 232300 AAA
TAFBIS
TAF AMD
KBIS 232322Z 2323/2424 29016G22KT P6SM VCSH BKN040
     FM240100 29009KT P6SM BKN080
     FM241400 28014G21KT P6SM SKC=

USA.gov is the U.S. government's official web portal to all federal, state and local government web resources and services.